Time;durP1;ratioP1;P1;durP2;ratioP2;P2;SDS_P1;SDS_P2;PMS_P1;PMS_P2;Temp;Humidity;BMP_temperature;BMP_pressure;BME280_temperature;BME280_humidity;BME280_pressure;Samples;Min_cycle;Max_cycle;Signal;HPM_P1;HPM_P2
2023/01/15 00:01:18;;;;;;;3.55;2.30;;;;;;;;;;4705048;28;10000449;-75
2023/01/15 00:03:44;;;;;;;2.92;2.40;;;;;;;;;;5056841;28;20411;-74
2023/01/15 00:06:10;;;;;;;3.28;2.00;;;;;;;;;;5075980;28;20028;-74
2023/01/15 00:08:36;;;;;;;2.90;2.00;;;;;;;;;;5074526;28;20174;-74
2023/01/15 00:11:03;;;;;;;2.53;2.20;;;;;;;;;;5060282;28;20036;-74
2023/01/15 00:13:29;;;;;;;2.58;2.20;;;;;;;;;;5066278;28;20044;-74
2023/01/15 00:16:01;;;;;;;2.10;1.90;;;;;;;;;;5075554;28;20476;-75
2023/01/15 00:18:27;;;;;;;1.50;1.40;;;;;;;;;;5069975;28;20058;-75
2023/01/15 00:20:58;;;;;;;4.22;2.13;;;;;;;;;;5067447;28;20161;-75
2023/01/15 00:28:57;;;;;;;1.58;1.48;;;;;;;;;;5063961;28;20036;-76
2023/01/15 00:31:23;;;;;;;4.03;1.52;;;;;;;;;;5064880;28;20017;-76
2023/01/15 00:33:49;;;;;;;3.22;1.30;;;;;;;;;;5058604;28;20028;-75
2023/01/15 00:36:15;;;;;;;1.33;1.20;;;;;;;;;;5053044;28;20032;-76
2023/01/15 00:38:41;;;;;;;1.80;1.25;;;;;;;;;;5063252;28;20020;-76
2023/01/15 00:41:07;;;;;;;2.88;1.40;;;;;;;;;;5065109;28;20493;-76
2023/01/15 00:43:33;;;;;;;4.13;1.30;;;;;;;;;;5062262;28;20036;-75
2023/01/15 00:45:59;;;;;;;3.13;0.90;;;;;;;;;;5060082;28;20063;-75
2023/01/15 00:48:25;;;;;;;3.22;1.00;;;;;;;;;;5052624;28;20410;-75
2023/01/15 00:50:51;;;;;;;2.30;0.80;;;;;;;;;;5063497;28;20024;-75
2023/01/15 00:53:17;;;;;;;1.33;0.93;;;;;;;;;;5063057;28;20017;-75
2023/01/15 00:55:43;;;;;;;1.00;0.90;;;;;;;;;;5063315;28;20024;-74
2023/01/15 00:58:09;;;;;;;3.92;0.50;;;;;;;;;;5068519;28;20020;-75
2023/01/15 01:00:35;;;;;;;1.63;0.52;;;;;;;;;;5053599;28;20039;-74
2023/01/15 01:03:01;;;;;;;0.70;0.50;;;;;;;;;;5064724;28;20020;-74
2023/01/15 01:05:27;;;;;;;1.45;0.40;;;;;;;;;;5053399;28;20470;-74
2023/01/15 01:07:53;;;;;;;0.30;0.30;;;;;;;;;;5070243;28;20024;-74
2023/01/15 01:10:19;;;;;;;1.00;0.30;;;;;;;;;;5048996;28;20107;-74
2023/01/15 01:12:47;;;;;;;0.65;0.40;;;;;;;;;;5070652;28;20495;-74
2023/01/15 01:15:13;;;;;;;0.30;0.30;;;;;;;;;;5069843;28;20033;-75
2023/01/15 01:17:39;;;;;;;0.77;0.30;;;;;;;;;;5073094;28;20035;-74
2023/01/15 01:20:06;;;;;;;1.25;0.52;;;;;;;;;;5060803;28;20083;-74
2023/01/15 01:22:32;;;;;;;1.45;0.57;;;;;;;;;;5063992;28;20036;-74
2023/01/15 01:24:58;;;;;;;0.68;0.40;;;;;;;;;;5078180;28;20024;-75
2023/01/15 01:27:24;;;;;;;1.42;0.50;;;;;;;;;;5075292;28;20637;-74
2023/01/15 01:29:50;;;;;;;2.47;0.50;;;;;;;;;;5073405;28;20124;-75
2023/01/15 01:32:16;;;;;;;1.65;0.40;;;;;;;;;;5063140;28;20492;-75
2023/01/15 01:34:42;;;;;;;1.08;0.45;;;;;;;;;;5070092;28;20073;-74
2023/01/15 01:37:08;;;;;;;1.05;0.32;;;;;;;;;;5070516;28;20419;-74
2023/01/15 01:39:34;;;;;;;0.40;0.30;;;;;;;;;;5078929;28;20051;-74
2023/01/15 01:42:00;;;;;;;0.93;0.40;;;;;;;;;;5065017;28;20021;-74
2023/01/15 01:44:32;;;;;;;1.23;0.55;;;;;;;;;;5059865;28;20477;-75
2023/01/15 01:47:00;;;;;;;0.45;0.40;;;;;;;;;;5071115;28;20067;-74
2023/01/15 01:49:26;;;;;;;1.05;0.30;;;;;;;;;;5071253;28;20041;-75
2023/01/15 01:51:54;;;;;;;1.58;0.32;;;;;;;;;;5070061;28;20059;-75
2023/01/15 01:54:22;;;;;;;0.35;0.35;;;;;;;;;;5065217;28;20040;-75
2023/01/15 01:56:49;;;;;;;1.35;0.40;;;;;;;;;;5067532;28;20079;-75
2023/01/15 01:59:17;;;;;;;0.60;0.40;;;;;;;;;;5068811;28;20028;-75
2023/01/15 02:01:43;;;;;;;1.58;0.30;;;;;;;;;;5066659;28;20032;-75
2023/01/15 02:04:10;;;;;;;0.88;0.40;;;;;;;;;;5065614;28;20477;-75
2023/01/15 02:06:37;;;;;;;1.75;0.22;;;;;;;;;;5075758;28;20036;-75
2023/01/15 02:09:03;;;;;;;0.40;0.28;;;;;;;;;;5071440;28;20047;-74
2023/01/15 02:11:30;;;;;;;0.43;0.30;;;;;;;;;;5066459;28;20444;-75
2023/01/15 02:14:08;;;;;;;0.40;0.30;;;;;;;;;;5062032;28;20613;-75
2023/01/15 02:16:39;;;;;;;0.77;0.60;;;;;;;;;;5069494;28;20032;-74
2023/01/15 02:19:24;;;;;;;1.13;0.50;;;;;;;;;;5065464;28;20053;-74
2023/01/15 02:22:00;;;;;;;1.40;0.40;;;;;;;;;;5064152;28;20033;-74
2023/01/15 02:24:52;;;;;;;0.50;0.30;;;;;;;;;;5058338;28;20031;-74
2023/01/15 02:27:20;;;;;;;0.63;0.30;;;;;;;;;;5043074;28;20075;-74
2023/01/15 02:29:46;;;;;;;0.50;0.28;;;;;;;;;;5067954;28;20582;-74
2023/01/15 02:32:23;;;;;;;0.73;0.32;;;;;;;;;;5066028;28;20036;-74
2023/01/15 02:34:52;;;;;;;1.67;0.32;;;;;;;;;;5065353;28;20481;-74
2023/01/15 02:37:22;;;;;;;0.95;0.50;;;;;;;;;;5074794;28;20020;-73
2023/01/15 02:39:49;;;;;;;0.55;0.38;;;;;;;;;;5058815;28;20417;-74
2023/01/15 02:42:15;;;;;;;1.52;0.32;;;;;;;;;;5064859;28;20033;-74
2023/01/15 02:44:44;;;;;;;0.77;0.45;;;;;;;;;;5042146;28;20032;-73
2023/01/15 02:47:10;;;;;;;0.85;0.50;;;;;;;;;;5066726;28;20037;-73
2023/01/15 02:49:37;;;;;;;0.60;0.40;;;;;;;;;;5059461;28;20504;-74
2023/01/15 02:52:06;;;;;;;1.38;0.50;;;;;;;;;;5064389;28;20120;-74
2023/01/15 02:54:36;;;;;;;0.88;0.50;;;;;;;;;;5061255;28;20032;-74
2023/01/15 02:57:04;;;;;;;3.55;0.30;;;;;;;;;;5059680;28;20056;-74
2023/01/15 02:59:34;;;;;;;2.20;0.50;;;;;;;;;;5055011;28;20123;-74
2023/01/15 03:02:02;;;;;;;1.00;0.30;;;;;;;;;;5061519;28;20028;-75
2023/01/15 03:04:32;;;;;;;3.25;0.50;;;;;;;;;;5055927;28;20115;-74
2023/01/15 03:07:05;;;;;;;1.15;0.20;;;;;;;;;;5062942;28;20020;-74
2023/01/15 03:09:31;;;;;;;0.88;0.40;;;;;;;;;;5065900;28;20027;-75
2023/01/15 03:12:02;;;;;;;0.57;0.30;;;;;;;;;;5054651;28;20035;-74
2023/01/15 03:14:35;;;;;;;0.40;0.28;;;;;;;;;;5054040;28;20024;-74
2023/01/15 03:17:10;;;;;;;1.00;0.55;;;;;;;;;;5063371;28;20027;-74
2023/01/15 03:19:48;;;;;;;0.63;0.30;;;;;;;;;;5063549;28;20499;-74
2023/01/15 03:22:14;;;;;;;0.28;0.20;;;;;;;;;;5071652;28;20132;-75
2023/01/15 03:24:42;;;;;;;0.43;0.20;;;;;;;;;;5062089;28;20083;-74
2023/01/15 03:27:08;;;;;;;0.30;0.30;;;;;;;;;;5071357;28;20024;-74
2023/01/15 03:29:38;;;;;;;0.30;0.25;;;;;;;;;;5066516;28;20059;-74
2023/01/15 03:32:05;;;;;;;0.20;0.20;;;;;;;;;;5066283;28;20031;-73
2023/01/15 03:34:36;;;;;;;0.90;0.20;;;;;;;;;;5071019;28;20056;-73
2023/01/15 03:37:02;;;;;;;0.47;0.10;;;;;;;;;;5061474;28;20542;-74
2023/01/15 03:39:28;;;;;;;1.85;0.20;;;;;;;;;;5065977;28;20036;-74
2023/01/15 03:42:12;;;;;;;0.15;0.10;;;;;;;;;;5060715;28;20541;-74
2023/01/15 03:44:55;;;;;;;0.57;0.13;;;;;;;;;;5057292;28;20758;-74
2023/01/15 03:47:21;;;;;;;0.10;0.10;;;;;;;;;;5081275;28;20043;-74
2023/01/15 03:49:53;;;;;;;0.10;0.10;;;;;;;;;;5065256;28;20407;-74
2023/01/15 03:52:19;;;;;;;0.73;0.20;;;;;;;;;;5071400;28;20085;-74
2023/01/15 03:54:57;;;;;;;0.80;0.20;;;;;;;;;;5059394;28;20028;-74
2023/01/15 03:57:29;;;;;;;0.30;0.25;;;;;;;;;;5056616;28;20032;-74
2023/01/15 03:59:58;;;;;;;0.30;0.20;;;;;;;;;;5059722;28;20025;-74
2023/01/15 04:02:25;;;;;;;0.30;0.30;;;;;;;;;;5056082;28;20404;-74
2023/01/15 04:04:51;;;;;;;0.20;0.20;;;;;;;;;;5065115;28;20035;-74
2023/01/15 04:07:18;;;;;;;0.20;0.20;;;;;;;;;;5064609;28;20068;-74
2023/01/15 04:09:44;;;;;;;1.10;0.60;;;;;;;;;;5063393;28;20191;-74
2023/01/15 04:12:10;;;;;;;0.40;0.40;;;;;;;;;;5059352;28;20568;-75
2023/01/15 04:14:36;;;;;;;0.95;0.77;;;;;;;;;;5059512;28;20799;-74
2023/01/15 04:17:02;;;;;;;0.82;0.80;;;;;;;;;;5063496;28;20029;-75
2023/01/15 04:19:28;;;;;;;0.60;0.60;;;;;;;;;;5063786;28;20020;-75
2023/01/15 04:21:54;;;;;;;1.00;0.90;;;;;;;;;;5063270;28;20504;-74
2023/01/15 04:24:20;;;;;;;1.73;1.20;;;;;;;;;;5058792;28;20032;-74
2023/01/15 04:26:46;;;;;;;1.40;1.08;;;;;;;;;;5057457;28;20024;-75
2023/01/15 04:29:12;;;;;;;1.63;1.20;;;;;;;;;;5064349;28;20060;-74
2023/01/15 04:31:38;;;;;;;0.50;0.50;;;;;;;;;;5059763;28;20074;-75
2023/01/15 04:34:04;;;;;;;0.45;0.20;;;;;;;;;;5058748;28;20026;-74
2023/01/15 04:36:34;;;;;;;0.45;0.20;;;;;;;;;;5057853;28;20098;-75
2023/01/15 04:39:00;;;;;;;0.55;0.20;;;;;;;;;;5058606;28;20575;-74
2023/01/15 04:44:10;;;;;;;0.25;0.20;;;;;;;;;;5055298;28;20090;-75
2023/01/15 04:46:40;;;;;;;0.30;0.13;;;;;;;;;;5068344;28;20476;-74
2023/01/15 04:49:08;;;;;;;0.30;0.20;;;;;;;;;;5062047;28;20131;-74
2023/01/15 04:51:34;;;;;;;0.45;0.10;;;;;;;;;;5057293;28;20023;-74
2023/01/15 04:54:04;;;;;;;0.47;0.20;;;;;;;;;;5065280;28;20017;-74
2023/01/15 04:56:30;;;;;;;1.30;0.10;;;;;;;;;;5073219;28;20091;-74
2023/01/15 04:58:59;;;;;;;0.80;0.30;;;;;;;;;;5063244;28;20027;-74
2023/01/15 05:01:25;;;;;;;0.65;0.25;;;;;;;;;;5057776;28;20036;-74
2023/01/15 05:03:51;;;;;;;0.20;0.20;;;;;;;;;;5054655;28;20035;-74
2023/01/15 05:06:17;;;;;;;1.08;0.20;;;;;;;;;;5066216;28;20549;-74
2023/01/15 05:08:44;;;;;;;0.80;0.28;;;;;;;;;;5054827;28;20103;-74
2023/01/15 05:11:10;;;;;;;0.43;0.40;;;;;;;;;;5063842;28;20024;-74
2023/01/15 05:13:36;;;;;;;0.65;0.20;;;;;;;;;;5058816;28;20035;-74
2023/01/15 05:16:14;;;;;;;0.60;0.30;;;;;;;;;;5060939;28;20614;-74
2023/01/15 05:18:41;;;;;;;0.68;0.10;;;;;;;;;;5060243;28;20563;-74
2023/01/15 05:21:12;;;;;;;3.38;0.40;;;;;;;;;;5048164;28;20040;-75
2023/01/15 05:23:38;;;;;;;0.55;0.20;;;;;;;;;;5062212;28;20033;-74
2023/01/15 05:26:05;;;;;;;1.30;0.20;;;;;;;;;;5063938;28;20457;-74
2023/01/15 05:28:31;;;;;;;2.60;0.22;;;;;;;;;;5063148;28;20024;-74
2023/01/15 05:30:56;;;;;;;1.85;0.20;;;;;;;;;;5060439;28;21126;-75
2023/01/15 05:33:22;;;;;;;2.45;0.30;;;;;;;;;;5060443;28;20017;-75
2023/01/15 05:35:48;;;;;;;0.75;0.20;;;;;;;;;;5066898;28;20032;-75
2023/01/15 05:38:14;;;;;;;1.75;0.50;;;;;;;;;;5064654;28;20028;-75
2023/01/15 05:40:40;;;;;;;2.05;1.00;;;;;;;;;;5064856;28;20031;-74
2023/01/15 05:43:06;;;;;;;3.13;0.90;;;;;;;;;;5058287;28;20033;-75
2023/01/15 05:45:35;;;;;;;1.08;0.50;;;;;;;;;;5066287;28;20192;-74
2023/01/15 05:48:01;;;;;;;0.68;0.40;;;;;;;;;;5062817;28;20036;-75
2023/01/15 05:50:27;;;;;;;1.02;0.40;;;;;;;;;;5061161;28;20094;-75
2023/01/15 05:52:53;;;;;;;0.82;0.50;;;;;;;;;;5062387;28;20020;-75
2023/01/15 05:55:19;;;;;;;0.65;0.40;;;;;;;;;;5071622;28;20031;-75
2023/01/15 05:57:45;;;;;;;0.68;0.43;;;;;;;;;;5067752;28;20400;-75
2023/01/15 06:00:11;;;;;;;2.17;0.93;;;;;;;;;;5068580;28;20036;-75
2023/01/15 06:02:37;;;;;;;0.90;0.50;;;;;;;;;;5061032;28;20471;-75
2023/01/15 06:05:04;;;;;;;1.75;0.40;;;;;;;;;;5068948;28;20078;-74
2023/01/15 06:07:30;;;;;;;2.55;0.32;;;;;;;;;;5071195;28;20013;-74
2023/01/15 06:09:56;;;;;;;1.50;0.30;;;;;;;;;;5060872;28;20503;-75
2023/01/15 06:12:22;;;;;;;1.65;0.50;;;;;;;;;;5060623;28;20044;-74
2023/01/15 06:14:48;;;;;;;1.27;0.40;;;;;;;;;;5067132;28;20021;-75
2023/01/15 06:17:14;;;;;;;5.22;0.65;;;;;;;;;;5069561;28;20488;-75
2023/01/15 06:19:40;;;;;;;1.95;0.38;;;;;;;;;;5066991;28;20032;-75
2023/01/15 06:22:06;;;;;;;0.82;0.40;;;;;;;;;;5067831;28;20025;-75
2023/01/15 06:24:32;;;;;;;0.60;0.22;;;;;;;;;;5062399;28;20428;-75
2023/01/15 06:26:58;;;;;;;2.00;0.35;;;;;;;;;;5074477;28;20029;-75
2023/01/15 06:29:24;;;;;;;1.30;0.20;;;;;;;;;;5067847;28;20020;-75
2023/01/15 06:31:50;;;;;;;1.90;0.57;;;;;;;;;;5066999;28;20017;-75
2023/01/15 06:34:16;;;;;;;2.08;0.30;;;;;;;;;;5066942;28;20025;-75
2023/01/15 06:36:42;;;;;;;1.85;0.40;;;;;;;;;;5077645;28;20024;-74
2023/01/15 06:39:08;;;;;;;1.30;0.30;;;;;;;;;;5063855;28;20111;-75
2023/01/15 06:47:19;;;;;;;2.05;0.40;;;;;;;;;;5054094;28;20176;-75
2023/01/15 06:49:46;;;;;;;0.75;0.40;;;;;;;;;;5074291;28;20382;-75
2023/01/15 06:52:12;;;;;;;0.50;0.30;;;;;;;;;;5059584;28;20452;-75
2023/01/15 06:54:38;;;;;;;3.88;0.68;;;;;;;;;;5065025;28;20119;-76
2023/01/15 06:57:05;;;;;;;1.58;0.30;;;;;;;;;;5060675;28;20124;-75
2023/01/15 06:59:31;;;;;;;2.33;0.40;;;;;;;;;;5060181;28;20017;-75
2023/01/15 07:01:57;;;;;;;1.80;0.50;;;;;;;;;;5058033;28;20082;-75
2023/01/15 07:04:23;;;;;;;2.65;0.55;;;;;;;;;;5060585;28;20033;-75
2023/01/15 07:06:49;;;;;;;3.13;0.70;;;;;;;;;;5064615;28;20031;-75
2023/01/15 07:09:15;;;;;;;2.10;0.60;;;;;;;;;;5067360;28;20021;-75
2023/01/15 07:11:48;;;;;;;1.17;0.50;;;;;;;;;;5062561;28;20020;-75
2023/01/15 07:14:21;;;;;;;1.20;0.43;;;;;;;;;;5061970;28;20035;-74
2023/01/15 07:16:48;;;;;;;0.85;0.40;;;;;;;;;;5063154;28;20040;-75
2023/01/15 07:19:14;;;;;;;1.52;0.45;;;;;;;;;;5068988;28;20043;-75
2023/01/15 07:21:40;;;;;;;0.60;0.40;;;;;;;;;;5055163;28;20071;-74
2023/01/15 07:24:06;;;;;;;2.00;0.40;;;;;;;;;;5063247;28;20031;-74
2023/01/15 07:26:32;;;;;;;2.97;0.63;;;;;;;;;;5070144;28;20059;-74
2023/01/15 07:28:58;;;;;;;3.22;0.55;;;;;;;;;;5058612;28;20020;-74
2023/01/15 07:31:24;;;;;;;2.50;0.90;;;;;;;;;;5060289;28;20248;-75
2023/01/15 07:33:50;;;;;;;1.90;0.90;;;;;;;;;;4706960;28;10000544;-75
2023/01/15 07:36:17;;;;;;;4.65;2.53;;;;;;;;;;5045356;28;20430;-74
2023/01/15 07:38:43;;;;;;;7.47;3.60;;;;;;;;;;5053195;28;20123;-75
2023/01/15 07:52:07;;;;;;;1.90;0.90;;;;;;;;;;5061826;28;20194;-75
2023/01/15 07:54:33;;;;;;;2.30;0.50;;;;;;;;;;5062205;28;20153;-75
2023/01/15 07:56:59;;;;;;;3.13;0.70;;;;;;;;;;5064071;28;20040;-75
2023/01/15 07:59:26;;;;;;;2.30;1.13;;;;;;;;;;5064410;28;20444;-74
2023/01/15 08:01:52;;;;;;;5.20;2.92;;;;;;;;;;5054206;28;20056;-75
2023/01/15 08:04:18;;;;;;;4.82;2.53;;;;;;;;;;5052530;28;20123;-74
2023/01/15 08:06:43;;;;;;;8.10;3.20;;;;;;;;;;5064167;28;20058;-75
2023/01/15 08:09:10;;;;;;;5.20;2.25;;;;;;;;;;5055720;28;20032;-75
2023/01/15 08:17:25;;;;;;;5.05;2.90;;;;;;;;;;5031458;28;20058;-74
2023/01/15 08:19:51;;;;;;;5.50;2.50;;;;;;;;;;5032882;28;20037;-74
2023/01/15 08:22:17;;;;;;;5.30;2.50;;;;;;;;;;5039367;28;20710;-75
2023/01/15 08:24:43;;;;;;;9.80;4.20;;;;;;;;;;5060039;28;20032;-76
2023/01/15 08:27:09;;;;;;;5.22;1.77;;;;;;;;;;5056796;28;20040;-77
2023/01/15 08:29:35;;;;;;;5.63;1.90;;;;;;;;;;5061765;28;20164;-78
2023/01/15 08:32:01;;;;;;;4.53;1.75;;;;;;;;;;5046481;28;20076;-75
2023/01/15 08:34:27;;;;;;;3.28;1.70;;;;;;;;;;5064176;28;20135;-74
2023/01/15 08:36:58;;;;;;;1.90;1.50;;;;;;;;;;5060235;28;20313;-74
2023/01/15 08:39:24;;;;;;;5.38;1.80;;;;;;;;;;5061013;28;20047;-75
2023/01/15 08:41:50;;;;;;;3.42;1.52;;;;;;;;;;5055141;28;20037;-75
2023/01/15 08:44:16;;;;;;;8.85;3.33;;;;;;;;;;5054732;28;20123;-72
2023/01/15 08:46:42;;;;;;;6.68;3.03;;;;;;;;;;5059038;28;20032;-75
2023/01/15 08:49:11;;;;;;;6.13;2.28;;;4.30;99.90;;;;;;5044565;28;20045;-73
2023/01/15 08:51:37;;;;;;;3.22;1.50;;;4.30;99.90;;;;;;5047952;28;20071;-74
2023/01/15 08:54:02;;;;;;;7.10;3.47;;;4.30;99.90;;;;;;5063534;28;20028;-73
2023/01/15 08:56:28;;;;;;;3.97;1.60;;;4.30;99.90;;;;;;5064601;28;20261;-73
2023/01/15 08:58:53;;;;;;;6.13;2.60;;;4.30;99.90;;;;;;5064195;28;20029;-74
2023/01/15 09:01:19;;;;;;;8.48;4.25;;;4.40;99.90;;;;;;5074701;28;20476;-74
2023/01/15 09:03:45;;;;;;;4.50;2.45;;;4.40;99.90;;;;;;5059897;28;20455;-73
2023/01/15 09:06:12;;;;;;;2.58;1.40;;;4.40;99.90;;;;;;5066862;28;20036;-74
2023/01/15 09:08:38;;;;;;;4.28;1.40;;;4.40;99.90;;;;;;5050022;28;20064;-74
2023/01/15 09:11:05;;;;;;;5.82;1.63;;;4.40;99.90;;;;;;5066446;28;20059;-73
2023/01/15 09:13:31;;;;;;;3.40;1.20;;;4.40;99.90;;;;;;5060695;28;20035;-74
2023/01/15 09:16:03;;;;;;;4.05;1.70;;;4.40;99.90;;;;;;5066419;28;20111;-74
2023/01/15 09:18:29;;;;;;;2.40;1.35;;;4.40;99.90;;;;;;5059769;28;20057;-74
2023/01/15 09:20:54;;;;;;;2.35;1.60;;;4.40;99.90;;;;;;5052012;28;20472;-74
2023/01/15 09:23:20;;;;;;;4.45;1.23;;;4.40;99.90;;;;;;5064188;28;20033;-74
2023/01/15 09:25:56;;;;;;;4.25;1.33;;;4.40;99.90;;;;;;5058182;28;20063;-74
2023/01/15 09:28:22;;;;;;;5.35;1.10;;;4.40;99.90;;;;;;5077594;28;20048;-74
2023/01/15 09:30:48;;;;;;;2.03;1.20;;;4.40;99.90;;;;;;5055684;28;20047;-74
2023/01/15 09:33:13;;;;;;;3.22;1.10;;;4.40;99.90;;;;;;5067803;28;20029;-74
2023/01/15 09:35:41;;;;;;;3.33;1.10;;;4.40;99.90;;;;;;5081756;28;20036;-74
2023/01/15 09:38:08;;;;;;;3.80;1.05;;;4.50;99.90;;;;;;5050622;28;20036;-74
2023/01/15 09:40:46;;;;;;;4.55;1.25;;;4.40;99.90;;;;;;5054885;28;20032;-74
2023/01/15 09:43:22;;;;;;;3.13;1.33;;;4.40;99.90;;;;;;5051231;28;20064;-73
2023/01/15 09:45:59;;;;;;;6.75;1.92;;;4.50;99.90;;;;;;5078040;28;20025;-73
2023/01/15 09:48:40;;;;;;;4.97;1.45;;;4.50;99.90;;;;;;5061787;28;20044;-73
2023/01/15 09:51:15;;;;;;;4.47;2.33;;;4.50;99.90;;;;;;5068063;28;20027;-74
2023/01/15 09:53:40;;;;;;;3.22;1.00;;;4.50;99.90;;;;;;5062483;28;20680;-74
2023/01/15 09:56:15;;;;;;;2.30;0.90;;;4.50;99.90;;;;;;5075716;28;20029;-74
2023/01/15 09:58:41;;;;;;;4.13;1.10;;;4.50;99.90;;;;;;5067482;28;20032;-73
2023/01/15 10:01:14;;;;;;;5.20;1.10;;;4.50;99.90;;;;;;5059040;28;20082;-74
2023/01/15 10:04:16;;;;;;;2.10;0.55;;;4.50;99.90;;;;;;5073420;28;20476;-74
2023/01/15 10:06:55;;;;;;;3.05;1.10;;;4.50;99.90;;;;;;5063528;28;20040;-73
2023/01/15 10:09:30;;;;;;;4.90;1.50;;;4.50;99.90;;;;;;5069309;28;20033;-74
2023/01/15 10:15:17;;;;;;;1.80;1.30;;;4.50;99.90;;;;;;5067974;28;20078;-74
2023/01/15 10:17:45;;;;;;;2.38;1.27;;;4.50;99.90;;;;;;5067669;28;20024;-74
2023/01/15 10:20:32;;;;;;;1.92;1.23;;;4.50;99.90;;;;;;5051678;28;20469;-73
2023/01/15 10:23:25;;;;;;;2.40;0.90;;;4.60;99.90;;;;;;5061511;28;20402;-74
2023/01/15 10:25:59;;;;;;;0.60;0.60;;;4.50;99.90;;;;;;5064747;28;20040;-74
2023/01/15 10:28:30;;;;;;;0.60;0.50;;;;;;;;;;5068337;28;20055;-74
2023/01/15 10:30:59;;;;;;;2.22;0.70;;;;;;;;;;5065430;28;20020;-75
2023/01/15 10:33:34;;;;;;;0.70;0.40;;;;;;;;;;5058729;28;20676;-75
2023/01/15 10:36:03;;;;;;;0.98;0.60;;;;;;;;;;5076360;28;20028;-74
2023/01/15 10:38:32;;;;;;;1.00;0.65;;;;;;;;;;5050160;28;20033;-74
2023/01/15 10:40:58;;;;;;;0.82;0.40;;;;;;;;;;5069324;28;20570;-74
2023/01/15 10:43:41;;;;;;;0.45;0.40;;;;;;;;;;5058232;28;20037;-74
2023/01/15 10:46:12;;;;;;;1.25;0.60;;;;;;;;;;5067203;28;20479;-74
2023/01/15 10:48:53;;;;;;;1.92;0.80;;;;;;;;;;5068507;28;20632;-75
2023/01/15 10:51:41;;;;;;;1.58;0.90;;;;;;;;;;5061281;28;20021;-75
2023/01/15 10:54:10;;;;;;;4.93;3.30;;;;;;;;;;5053400;28;20154;-74
2023/01/15 10:56:48;;;;;;;2.40;1.85;;;;;;;;;;5058131;28;20028;-75
2023/01/15 10:59:29;;;;;;;1.52;0.98;;;;;;;;;;5078694;28;20025;-74
2023/01/15 11:01:58;;;;;;;1.27;1.05;;;;;;;;;;5072279;28;20024;-74
2023/01/15 11:04:26;;;;;;;1.20;1.10;;;;;;;;;;5063869;28;20024;-74
2023/01/15 11:06:52;;;;;;;1.88;1.17;;;;;;;;;;5065786;28;20477;-73
2023/01/15 11:09:21;;;;;;;1.30;0.80;;;;;;;;;;5078539;28;20035;-74
2023/01/15 11:20:10;;;;;;;3.35;2.00;;;;;;;;;;5061931;28;20052;-74
2023/01/15 11:22:38;;;;;;;0.73;0.73;;;;;;;;;;5050422;28;20024;-74
2023/01/15 11:25:06;;;;;;;1.67;0.60;;;;;;;;;;5071877;28;20029;-75
2023/01/15 11:27:32;;;;;;;0.80;0.50;;;;;;;;;;5079974;28;20110;-74
2023/01/15 11:30:00;;;;;;;0.80;0.50;;;;;;;;;;5058298;28;20021;-74
2023/01/15 11:32:38;;;;;;;2.25;0.82;;;;;;;;;;5074744;28;20054;-75
2023/01/15 11:35:10;;;;;;;1.00;0.88;;;;;;;;;;5070537;28;20090;-74
2023/01/15 11:37:36;;;;;;;1.85;1.17;;;;;;;;;;5067124;28;20020;-75
2023/01/15 11:40:07;;;;;;;0.40;0.35;;;;;;;;;;5066139;28;20596;-74
2023/01/15 11:51:01;;;;;;;0.80;0.60;;;;;;;;;;5061711;28;20039;-75
2023/01/15 11:53:32;;;;;;;1.05;0.40;;;;;;;;;;5070103;28;20498;-75
2023/01/15 11:55:59;;;;;;;2.20;0.60;;;;;;;;;;5084400;28;20184;-75
2023/01/15 11:58:31;;;;;;;1.02;0.70;;;;;;;;;;5057917;28;20048;-75
2023/01/15 12:00:58;;;;;;;2.05;0.50;;;;;;;;;;5065281;28;20134;-74
2023/01/15 12:03:26;;;;;;;2.05;0.60;;;;;;;;;;5069735;28;20032;-75
2023/01/15 12:05:58;;;;;;;3.25;1.00;;;;;;;;;;5068695;28;20021;-75
2023/01/15 12:08:46;;;;;;;1.90;0.80;;;;;;;;;;5056421;28;20479;-75
2023/01/15 12:11:27;;;;;;;2.78;0.70;;;4.80;99.90;;;;;;5057692;28;20146;-73
2023/01/15 12:14:14;;;;;;;3.85;0.77;;;4.80;99.90;;;;;;5050182;28;20055;-73
2023/01/15 12:17:01;;;;;;;2.67;0.80;;;4.90;99.90;;;;;;5051324;28;20036;-73
2023/01/15 12:19:54;;;;;;;4.07;0.80;;;5.00;99.90;;;;;;5054416;28;20036;-73
2023/01/15 12:22:37;;;;;;;2.60;0.75;;;5.20;99.90;;;;;;5056222;28;20502;-73
2023/01/15 12:25:30;;;;;;;3.53;0.95;;;5.60;99.90;;;;;;5054188;28;20131;-73
2023/01/15 12:28:17;;;;;;;5.75;1.48;;;5.60;99.90;;;;;;5063957;28;20029;-73
2023/01/15 12:30:54;;;;;;;6.72;1.30;;;5.80;99.90;;;;;;5066365;28;20131;-73
2023/01/15 12:33:54;;;;;;;3.60;1.23;;;6.00;99.90;;;;;;5061548;28;20043;-73
2023/01/15 12:36:40;;;;;;;2.97;1.52;;;6.10;99.90;;;;;;5056189;28;20037;-73
2023/01/15 12:39:36;;;;;;;5.20;1.38;;;6.10;99.90;;;;;;5054972;28;20126;-73
2023/01/15 12:45:07;;;;;;;8.38;1.80;;;6.20;99.90;;;;;;5054215;28;20105;-73
2023/01/15 12:47:45;;;;;;;6.70;1.70;;;6.20;99.90;;;;;;5059726;28;20056;-73
2023/01/15 12:50:23;;;;;;;10.93;2.17;;;6.20;99.90;;;;;;5054194;28;20491;-73
2023/01/15 12:53:12;;;;;;;3.83;1.10;;;6.20;99.90;;;;;;5056859;28;20081;-73
2023/01/15 12:55:44;;;;;;;3.58;1.00;;;6.00;99.90;;;;;;5036011;28;20064;-74
2023/01/15 12:58:39;;;;;;;6.50;1.00;;;6.00;99.90;;;;;;5059031;28;20028;-74
2023/01/15 13:01:12;;;;;;;4.65;1.65;;;;;;;;;;5052645;28;20043;-74
2023/01/15 13:03:38;;;;;;;;;;;;;;;;;;5040920;28;20444;-74
2023/01/15 13:06:07;;;;;;;6.63;1.50;;;;;;;;;;5065976;28;19964;-74
2023/01/15 13:08:36;;;;;;;5.72;1.13;;;;;;;;;;5086402;28;20036;-74
2023/01/15 13:11:02;;;;;;;7.43;0.90;;;;;;;;;;5056441;28;20033;-73
2023/01/15 13:13:30;;;;;;;3.30;1.10;;;;;;;;;;5059883;28;20013;-74
2023/01/15 13:16:10;;;;;;;4.30;1.30;;;;;;;;;;5077376;28;20036;-74
2023/01/15 13:18:36;;;;;;;4.40;1.27;;;;;;;;;;5067527;28;20056;-73
2023/01/15 13:21:08;;;;;;;8.90;2.10;;;;;;;;;;5054540;28;20684;-74
2023/01/15 13:23:52;;;;;;;4.88;1.20;;;;;;;;;;5061378;28;20556;-74
2023/01/15 13:26:18;;;;;;;4.68;2.00;;;;;;;;;;5063590;28;20485;-73
2023/01/15 13:29:02;;;;;;;5.68;1.70;;;;;;;;;;5066578;28;20031;-73
2023/01/15 13:31:39;;;;;;;6.22;1.70;;;;;;;;;;5057812;28;20661;-73
2023/01/15 13:34:26;;;;;;;5.78;1.40;;;;;;;;;;5073057;28;20546;-73
2023/01/15 13:36:53;;;;;;;2.85;0.90;;;;;;;;;;5065977;28;20027;-73
2023/01/15 13:39:22;;;;;;;5.80;2.10;;;;;;;;;;5053135;28;20073;-73
2023/01/15 13:44:41;;;;;;;8.20;1.65;;;;;;;;;;5044447;28;20091;-73
2023/01/15 13:47:09;;;;;;;5.65;1.05;;;;;;;;;;5055170;28;20040;-73
2023/01/15 13:49:37;;;;;;;5.82;2.00;;;;;;;;;;5063601;28;20056;-73
2023/01/15 13:52:04;;;;;;;8.30;1.73;;;;;;;;;;5048639;28;20017;-74
2023/01/15 13:54:32;;;;;;;4.63;2.00;;;;;;;;;;5055183;28;20036;-74
2023/01/15 13:57:08;;;;;;;3.78;1.50;;;;;;;;;;5060128;28;20120;-74
2023/01/15 13:59:44;;;;;;;7.18;1.63;;;;;;;;;;5052846;28;20040;-74
2023/01/15 14:02:22;;;;;;;4.63;1.15;;;;;;;;;;5056624;28;20066;-74
2023/01/15 14:04:48;;;;;;;7.13;1.40;;;;;;;;;;5064562;28;20541;-74
2023/01/15 14:07:19;;;;;;;4.80;1.10;;;;;;;;;;5060359;28;20024;-73
2023/01/15 14:09:45;;;;;;;5.75;1.17;;;;;;;;;;5055561;28;20025;-73
2023/01/15 14:12:30;;;;;;;3.97;1.20;;;;;;;;;;5061899;28;20036;-74
2023/01/15 14:15:08;;;;;;;2.88;1.05;;;;;;;;;;5052766;28;20029;-73
2023/01/15 14:17:48;;;;;;;5.30;2.00;;;;;;;;;;5060716;28;20025;-73
2023/01/15 14:20:14;;;;;;;7.65;1.83;;;;;;;;;;5068214;28;20040;-73
2023/01/15 14:22:55;;;;;;;5.18;2.10;;;;;;;;;;5064111;28;20082;-74
2023/01/15 14:25:21;;;;;;;3.35;1.60;;;;;;;;;;5057554;28;20030;-74
2023/01/15 14:27:53;;;;;;;4.88;1.92;;;;;;;;;;5069137;28;20140;-73
2023/01/15 14:30:31;;;;;;;6.35;1.77;;;;;;;;;;5066759;28;20031;-73
2023/01/15 14:32:57;;;;;;;6.47;1.83;;;;;;;;;;5064874;28;20036;-73
2023/01/15 14:35:24;;;;;;;2.58;0.82;;;;;;;;;;5058737;28;20039;-74
2023/01/15 14:37:57;;;;;;;4.63;1.35;;;;;;;;;;5068000;28;20060;-74
2023/01/15 14:40:25;;;;;;;6.00;1.10;;;;;;;;;;5066932;28;20036;-74
2023/01/15 14:43:04;;;;;;;4.28;0.75;;;;;;;;;;5066062;28;20035;-73
2023/01/15 14:45:35;;;;;;;6.43;0.82;;;;;;;;;;5060621;28;20027;-73
2023/01/15 14:48:05;;;;;;;8.05;1.75;;;;;;;;;;5058643;28;20393;-73
2023/01/15 14:50:38;;;;;;;4.00;1.00;;;;;;;;;;5067156;28;20111;-73
2023/01/15 14:53:13;;;;;;;6.00;2.10;;;;;;;;;;5067266;28;20021;-73
2023/01/15 14:55:43;;;;;;;6.22;1.42;;;;;;;;;;5065038;28;20024;-73
2023/01/15 14:58:27;;;;;;;4.55;1.55;;;;;;;;;;5068493;28;20532;-73
2023/01/15 15:00:54;;;;;;;2.25;0.95;;;;;;;;;;5053407;28;21538;-73
2023/01/15 15:03:25;;;;;;;8.05;1.15;;;;;;;;;;5072207;28;20043;-73
2023/01/15 15:05:52;;;;;;;5.97;1.77;;;;;;;;;;5067641;28;20047;-73
2023/01/15 15:08:18;;;;;;;3.38;1.08;;;;;;;;;;5049102;28;20458;-73
2023/01/15 15:10:46;;;;;;;6.18;1.45;;;;;;;;;;5048014;28;20025;-73
2023/01/15 15:13:14;;;;;;;4.82;1.05;;;;;;;;;;5066111;28;20602;-73
2023/01/15 15:15:51;;;;;;;4.13;1.17;;;;;;;;;;5066997;28;20032;-73
2023/01/15 15:18:35;;;;;;;3.67;0.85;;;5.50;99.90;;;;;;5068173;28;20067;-73
2023/01/15 15:21:09;;;;;;;4.97;1.58;;;5.40;99.90;;;;;;5070675;28;20385;-73
2023/01/15 15:23:58;;;;;;;6.30;2.17;;;5.40;99.90;;;;;;5058226;28;20041;-73
2023/01/15 15:26:27;;;;;;;2.85;1.30;;;5.40;99.90;;;;;;5059973;28;20033;-73
2023/01/15 15:29:14;;;;;;;3.03;1.15;;;5.40;99.90;;;;;;5067665;28;20033;-73
2023/01/15 15:31:52;;;;;;;6.10;1.52;;;5.30;99.90;;;;;;5079510;28;20027;-73
2023/01/15 15:34:32;;;;;;;4.45;1.10;;;5.30;99.90;;;;;;5075078;28;20128;-73